Time;durP1;ratioP1;P1;durP2;ratioP2;P2;SDS_P1;SDS_P2;PMS_P1;PMS_P2;Temp;Humidity;BMP_temperature;BMP_pressure;BME280_temperature;BME280_humidity;BME280_pressure;Samples;Min_cycle;Max_cycle;Signal;HPM_P1;HPM_P2
2023/07/28 00:00:21;;;;;;;1.47;1.47;;;16.80;99.90;;;;;;5123206;29;20206;-48
2023/07/28 00:02:52;;;;;;;1.40;1.40;;;16.90;99.90;;;;;;5124098;29;20186;-47
2023/07/28 00:05:23;;;;;;;2.87;1.70;;;16.90;99.90;;;;;;5126104;29;20709;-49
2023/07/28 00:07:53;;;;;;;1.33;1.33;;;16.90;99.90;;;;;;5122866;29;20194;-46
2023/07/28 00:10:24;;;;;;;1.40;1.40;;;16.80;99.90;;;;;;5125396;29;20704;-46
2023/07/28 00:12:54;;;;;;;1.30;1.20;;;16.70;99.90;;;;;;5121777;29;20201;-47
2023/07/28 00:15:25;;;;;;;1.43;1.33;;;16.60;99.90;;;;;;5119501;29;20218;-47
2023/07/28 00:17:56;;;;;;;2.07;1.97;;;16.60;99.90;;;;;;5123009;28;20206;-48
2023/07/28 00:20:26;;;;;;;1.67;1.57;;;16.60;99.90;;;;;;5118193;29;20273;-48
2023/07/28 00:22:58;;;;;;;1.60;1.50;;;16.70;99.90;;;;;;5125663;28;20665;-48
2023/07/28 00:25:29;;;;;;;2.43;2.27;;;16.60;99.90;;;;;;5121943;29;20675;-46
2023/07/28 00:27:59;;;;;;;2.00;1.90;;;16.70;99.90;;;;;;5121214;29;20474;-49
2023/07/28 00:30:31;;;;;;;2.07;1.97;;;16.70;99.90;;;;;;5121578;29;20201;-47
2023/07/28 00:33:01;;;;;;;2.70;2.60;;;16.80;99.90;;;;;;5122137;28;20187;-48
2023/07/28 00:35:32;;;;;;;1.43;1.43;;;16.80;99.90;;;;;;5120650;29;20444;-49
2023/07/28 00:38:03;;;;;;;1.63;1.63;;;16.80;99.90;;;;;;5113977;29;20261;-47
2023/07/28 00:40:35;;;;;;;2.50;2.40;;;16.70;99.90;;;;;;5119099;29;20194;-49
2023/07/28 00:43:05;;;;;;;2.70;2.60;;;16.80;99.90;;;;;;5123798;28;20642;-48
2023/07/28 00:45:36;;;;;;;3.13;2.97;;;16.70;99.90;;;;;;5119596;28;20460;-48
2023/07/28 00:48:12;;;;;;;2.00;2.00;;;16.70;99.90;;;;;;5119627;29;20237;-47
2023/07/28 00:50:45;;;;;;;3.60;2.87;;;16.70;99.90;;;;;;5121602;29;20663;-48
2023/07/28 00:53:16;;;;;;;3.97;3.67;;;16.70;99.90;;;;;;5115104;29;20423;-48
2023/07/28 00:55:47;;;;;;;3.07;2.97;;;16.80;99.90;;;;;;5113347;28;20553;-48
2023/07/28 00:58:18;;;;;;;3.40;3.20;;;16.80;99.90;;;;;;5121075;29;20553;-48
2023/07/28 01:00:48;;;;;;;3.00;2.80;;;16.80;99.90;;;;;;5122228;28;20210;-47
2023/07/28 01:03:21;;;;;;;4.23;3.83;;;17.00;99.90;;;;;;5118114;29;20484;-47
2023/07/28 01:06:16;;;;;;;3.43;3.10;;;16.90;99.90;;;;;;5105698;29;20564;-47
2023/07/28 01:09:01;;;;;;;3.13;2.83;;;16.80;99.90;;;;;;5129792;29;20417;-48
2023/07/28 01:11:31;;;;;;;4.33;3.03;;;16.80;99.90;;;;;;5132235;29;20438;-49
2023/07/28 01:14:02;;;;;;;4.07;3.80;;;16.80;99.90;;;;;;5110117;29;20435;-47
2023/07/28 01:16:33;;;;;;;3.03;2.87;;;16.80;99.90;;;;;;5124412;29;20202;-48
2023/07/28 01:19:03;;;;;;;4.00;3.60;;;16.80;99.90;;;;;;5123000;28;20219;-49
2023/07/28 01:21:34;;;;;;;2.77;2.67;;;16.80;99.90;;;;;;5118085;29;20295;-47
2023/07/28 01:24:11;;;;;;;2.60;2.50;;;16.90;99.90;;;;;;5124791;28;20572;-46
2023/07/28 01:26:43;;;;;;;2.63;2.53;;;16.80;99.90;;;;;;5124698;29;20426;-47
2023/07/28 01:29:15;;;;;;;3.17;3.03;;;16.80;99.90;;;;;;5116494;29;20450;-48
2023/07/28 01:31:47;;;;;;;3.13;2.70;;;16.90;99.90;;;;;;5112183;28;20442;-48
2023/07/28 01:34:18;;;;;;;3.90;3.30;;;16.90;99.90;;;;;;5125466;28;20469;-48
2023/07/28 01:36:48;;;;;;;2.90;2.80;;;16.90;99.90;;;;;;5124823;29;20441;-48
2023/07/28 01:39:19;;;;;;;3.33;2.60;;;16.90;99.90;;;;;;5117369;29;20198;-48
2023/07/28 01:41:49;;;;;;;2.87;2.67;;;16.90;99.90;;;;;;5126222;29;20269;-49
2023/07/28 01:44:20;;;;;;;4.53;4.23;;;16.90;99.90;;;;;;5122994;29;20206;-49
2023/07/28 01:46:51;;;;;;;2.97;2.87;;;17.00;99.90;;;;;;5109672;28;20182;-48
2023/07/28 01:49:21;;;;;;;3.47;3.27;;;17.00;99.90;;;;;;5116145;29;20195;-47
2023/07/28 01:51:52;;;;;;;2.93;2.83;;;17.00;99.90;;;;;;5126703;29;20193;-48
2023/07/28 01:54:22;;;;;;;2.77;2.57;;;17.00;99.90;;;;;;5118162;29;20210;-49
2023/07/28 01:56:53;;;;;;;3.57;3.37;;;17.00;99.90;;;;;;5120642;29;20187;-48
2023/07/28 01:59:24;;;;;;;2.70;2.60;;;17.00;99.90;;;;;;5129100;29;20210;-47
2023/07/28 02:01:54;;;;;;;4.83;2.73;;;17.00;99.90;;;;;;5120811;29;20213;-48
2023/07/28 02:04:25;;;;;;;2.70;2.60;;;16.90;99.90;;;;;;5126144;29;20206;-47
2023/07/28 02:06:55;;;;;;;3.50;3.30;;;17.00;99.90;;;;;;5116596;29;20226;-48
2023/07/28 02:09:26;;;;;;;4.23;3.83;;;17.00;99.90;;;;;;5123817;29;20631;-49
2023/07/28 02:11:57;;;;;;;7.97;3.80;;;17.00;99.90;;;;;;5118108;29;20178;-48
2023/07/28 02:14:28;;;;;;;4.37;3.90;;;17.00;99.90;;;;;;5136735;23;20190;-47
2023/07/28 02:17:00;;;;;;;4.50;4.10;;;17.00;99.90;;;;;;5122567;28;20592;-45
2023/07/28 02:19:30;;;;;;;3.40;3.30;;;17.00;99.90;;;;;;5129905;28;20182;-44
2023/07/28 02:22:01;;;;;;;4.00;3.80;;;17.00;99.90;;;;;;5123095;28;20438;-45
2023/07/28 02:24:32;;;;;;;7.57;5.83;;;17.00;99.90;;;;;;5114681;29;20253;-45
2023/07/28 02:27:03;;;;;;;6.97;5.50;;;17.10;99.90;;;;;;5123996;29;20699;-45
2023/07/28 02:29:34;;;;;;;7.00;5.90;;;17.10;99.90;;;;;;5125785;29;20533;-45
2023/07/28 02:32:05;;;;;;;5.87;4.70;;;17.00;99.90;;;;;;5122759;29;20242;-45
2023/07/28 02:34:35;;;;;;;8.63;5.73;;;17.10;99.90;;;;;;5127691;29;20319;-43
2023/07/28 02:37:06;;;;;;;4.23;4.00;;;17.10;99.90;;;;;;5121424;29;20470;-44
2023/07/28 02:39:37;;;;;;;5.03;4.67;;;17.10;99.90;;;;;;5121276;29;20191;-44
2023/07/28 02:42:08;;;;;;;7.53;5.77;;;17.00;99.90;;;;;;5122953;29;20270;-44
2023/07/28 02:44:39;;;;;;;7.30;6.17;;;17.10;99.90;;;;;;5114958;29;20207;-44
2023/07/28 02:47:10;;;;;;;11.00;6.60;;;17.10;99.90;;;;;;5122086;28;20194;-44
2023/07/28 02:49:43;;;;;;;6.47;5.33;;;17.10;99.90;;;;;;5112410;29;20443;-46
2023/07/28 02:52:13;;;;;;;10.77;6.67;;;17.10;99.90;;;;;;5126099;29;20187;-44
2023/07/28 02:54:44;;;;;;;11.90;7.33;;;17.10;99.90;;;;;;5125019;28;20454;-44
2023/07/28 02:57:15;;;;;;;7.07;5.83;;;17.10;99.90;;;;;;5120364;28;20569;-44
2023/07/28 02:59:46;;;;;;;6.97;6.17;;;17.10;99.90;;;;;;5123327;28;20186;-43
2023/07/28 03:02:16;;;;;;;6.50;5.97;;;17.10;99.90;;;;;;5108943;29;20530;-45
2023/07/28 03:04:47;;;;;;;11.03;7.23;;;17.10;99.90;;;;;;5122664;29;20198;-44
2023/07/28 03:07:18;;;;;;;10.37;6.60;;;17.10;99.90;;;;;;5128651;29;20285;-44
2023/07/28 03:09:48;;;;;;;7.40;6.73;;;17.10;99.90;;;;;;5123322;28;20183;-44
2023/07/28 03:12:19;;;;;;;10.37;7.10;;;17.10;99.90;;;;;;5120146;29;20210;-45
2023/07/28 03:14:50;;;;;;;14.23;6.47;;;17.10;99.90;;;;;;5096451;29;20211;-45
2023/07/28 03:17:21;;;;;;;10.37;7.57;;;17.10;99.90;;;;;;5118922;29;20285;-45
2023/07/28 03:19:51;;;;;;;11.60;6.93;;;17.20;99.90;;;;;;5126548;29;20210;-44
2023/07/28 03:22:22;;;;;;;14.93;8.60;;;17.20;99.90;;;;;;5126746;28;20612;-44
2023/07/28 03:24:53;;;;;;;23.97;11.10;;;17.20;99.90;;;;;;5117255;29;20285;-44
2023/07/28 03:27:24;;;;;;;12.50;8.00;;;17.10;99.90;;;;;;5123896;29;20234;-45
2023/07/28 03:29:55;;;;;;;10.53;6.73;;;17.20;99.90;;;;;;5127057;29;20281;-46
2023/07/28 03:32:26;;;;;;;9.90;7.20;;;17.10;99.90;;;;;;5121408;29;20509;-44
2023/07/28 03:34:56;;;;;;;9.27;7.07;;;17.10;99.90;;;;;;5118054;28;20210;-44
2023/07/28 03:37:27;;;;;;;16.03;8.60;;;17.10;99.90;;;;;;5123005;29;20279;-44
2023/07/28 03:39:58;;;;;;;12.73;6.70;;;17.10;99.90;;;;;;5123502;29;20190;-46
2023/07/28 03:42:30;;;;;;;7.03;6.17;;;17.20;99.90;;;;;;5122654;29;20638;-44
2023/07/28 03:45:01;;;;;;;7.27;6.57;;;17.20;99.90;;;;;;5125125;29;20217;-46
2023/07/28 03:47:32;;;;;;;10.37;7.13;;;17.20;99.90;;;;;;5120047;29;20430;-45
2023/07/28 03:50:03;;;;;;;10.70;6.60;;;17.20;99.90;;;;;;5118954;28;20190;-44
2023/07/28 03:52:34;;;;;;;6.27;5.67;;;17.20;99.90;;;;;;5117497;28;20195;-44
2023/07/28 03:55:04;;;;;;;17.10;8.27;;;17.20;99.90;;;;;;5109871;29;20476;-44
2023/07/28 03:57:35;;;;;;;9.67;7.10;;;17.20;99.90;;;;;;5124022;28;20210;-43
2023/07/28 04:00:06;;;;;;;7.77;6.97;;;17.20;99.90;;;;;;5125025;29;20182;-46
2023/07/28 04:02:37;;;;;;;7.17;6.47;;;17.20;99.90;;;;;;5139164;28;20217;-44
2023/07/28 04:05:08;;;;;;;12.10;8.33;;;17.20;99.90;;;;;;5119436;28;20544;-44
2023/07/28 04:07:39;;;;;;;10.83;8.23;;;17.20;99.90;;;;;;5119966;28;20201;-44
2023/07/28 04:10:10;;;;;;;8.13;6.80;;;17.20;99.90;;;;;;5107268;29;20191;-45
2023/07/28 04:12:40;;;;;;;10.23;8.90;;;17.30;99.90;;;;;;5125409;29;20193;-44
2023/07/28 04:15:11;;;;;;;10.90;7.90;;;17.30;99.90;;;;;;5126697;29;20214;-45
2023/07/28 04:17:42;;;;;;;9.57;6.90;;;17.30;99.90;;;;;;5127937;29;20224;-45
2023/07/28 04:20:12;;;;;;;6.80;6.20;;;17.30;99.90;;;;;;5126552;29;20188;-44
2023/07/28 04:22:43;;;;;;;8.63;6.60;;;17.30;99.90;;;;;;5119503;29;20190;-47
2023/07/28 04:25:14;;;;;;;15.40;8.00;;;17.40;99.90;;;;;;5115812;29;20298;-47
2023/07/28 04:27:44;;;;;;;6.97;6.27;;;17.40;99.90;;;;;;5123538;29;20202;-46
2023/07/28 04:30:15;;;;;;;17.17;8.60;;;17.40;99.90;;;;;;5119552;29;20194;-45
2023/07/28 04:32:46;;;;;;;8.37;6.83;;;17.40;99.90;;;;;;5097994;29;20237;-46
2023/07/28 04:35:16;;;;;;;10.03;7.53;;;17.50;99.90;;;;;;5122762;29;20264;-46
2023/07/28 04:37:47;;;;;;;6.97;6.37;;;17.50;99.90;;;;;;5119914;29;20626;-45
2023/07/28 04:40:19;;;;;;;6.90;6.40;;;17.50;99.90;;;;;;5116649;29;20187;-46
2023/07/28 04:42:52;;;;;;;8.70;7.37;;;17.60;99.90;;;;;;5126571;29;20182;-46
2023/07/28 04:45:23;;;;;;;14.13;8.83;;;17.60;99.90;;;;;;5124480;29;20446;-46
2023/07/28 04:47:55;;;;;;;6.27;5.77;;;17.70;99.90;;;;;;5118366;29;20488;-45
2023/07/28 04:50:25;;;;;;;5.97;5.53;;;17.60;99.90;;;;;;5113845;29;20193;-46
2023/07/28 04:52:56;;;;;;;7.73;7.10;;;17.70;99.90;;;;;;5124622;29;20434;-44
2023/07/28 04:55:27;;;;;;;7.40;6.67;;;17.70;99.90;;;;;;5120676;28;20330;-44
2023/07/28 04:57:58;;;;;;;8.17;6.20;;;17.70;99.90;;;;;;5122196;29;20270;-43
2023/07/28 05:00:28;;;;;;;18.20;9.60;;;17.70;99.90;;;;;;5124655;29;20718;-45
2023/07/28 05:02:59;;;;;;;9.50;6.97;;;17.60;99.90;;;;;;5122088;29;20209;-44
2023/07/28 05:05:30;;;;;;;7.03;6.43;;;17.70;99.90;;;;;;5117124;28;20203;-44
2023/07/28 05:08:01;;;;;;;6.67;6.10;;;17.70;99.90;;;;;;5123203;29;20282;-44
2023/07/28 05:10:31;;;;;;;5.63;5.30;;;17.70;99.90;;;;;;5126429;28;20520;-44
2023/07/28 05:13:04;;;;;;;9.27;7.30;;;17.70;99.90;;;;;;5125411;29;20270;-45
2023/07/28 05:15:35;;;;;;;9.87;7.20;;;17.70;99.90;;;;;;5129483;28;20281;-44
2023/07/28 05:18:06;;;;;;;9.03;8.17;;;17.70;99.90;;;;;;5127888;29;20461;-45
2023/07/28 05:20:37;;;;;;;7.43;6.77;;;17.80;99.90;;;;;;5129949;29;20265;-45
2023/07/28 05:23:07;;;;;;;22.27;9.20;;;17.80;99.90;;;;;;5129130;29;20193;-45
2023/07/28 05:25:38;;;;;;;7.30;6.73;;;17.90;99.90;;;;;;5110634;29;20207;-44
2023/07/28 05:28:09;;;;;;;7.80;7.00;;;17.90;99.90;;;;;;5122372;29;20186;-45
2023/07/28 05:30:40;;;;;;;6.97;6.27;;;18.00;99.90;;;;;;5116352;29;20190;-43
2023/07/28 05:33:11;;;;;;;6.47;5.87;;;18.00;99.90;;;;;;5120448;29;20686;-43
2023/07/28 05:35:42;;;;;;;7.87;7.07;;;18.00;99.90;;;;;;5129734;29;20465;-44
2023/07/28 05:38:12;;;;;;;7.70;7.00;;;18.00;99.90;;;;;;5128782;29;20209;-45
2023/07/28 05:40:43;;;;;;;8.07;6.40;;;18.00;99.90;;;;;;5122572;29;20190;-44
2023/07/28 05:43:14;;;;;;;6.07;5.57;;;18.00;99.90;;;;;;5122905;29;20179;-45
2023/07/28 05:45:47;;;;;;;8.93;5.90;;;18.00;99.90;;;;;;5122199;29;20606;-43
2023/07/28 05:48:18;;;;;;;7.57;6.83;;;18.00;99.90;;;;;;5128094;29;20639;-46
2023/07/28 05:50:51;;;;;;;6.63;6.10;;;18.10;99.90;;;;;;5110475;29;20438;-44
2023/07/28 05:53:22;;;;;;;7.43;6.80;;;18.10;99.90;;;;;;5125120;28;20182;-44
2023/07/28 05:55:53;;;;;;;8.97;7.73;;;18.20;99.90;;;;;;5120431;28;20878;-44
2023/07/28 05:58:24;;;;;;;8.77;7.63;;;18.10;99.90;;;;;;5120326;29;20234;-44
2023/07/28 06:00:55;;;;;;;6.93;6.23;;;18.10;99.90;;;;;;5125936;29;20477;-44
2023/07/28 06:03:26;;;;;;;6.50;6.00;;;18.10;99.90;;;;;;5125965;28;20943;-47
2023/07/28 06:05:57;;;;;;;7.63;6.40;;;18.10;99.90;;;;;;5127479;29;20205;-45
2023/07/28 06:08:28;;;;;;;6.10;5.60;;;18.10;99.90;;;;;;5128078;29;20472;-44
2023/07/28 06:10:58;;;;;;;7.33;6.60;;;18.00;99.90;;;;;;5115880;29;20907;-45
2023/07/28 06:13:29;;;;;;;5.93;5.53;;;17.90;99.90;;;;;;5118274;29;20273;-45
2023/07/28 06:16:00;;;;;;;8.80;6.37;;;17.80;99.90;;;;;;5124875;29;20214;-45
2023/07/28 06:18:30;;;;;;;6.43;5.70;;;17.80;99.90;;;;;;5118930;29;20225;-44
2023/07/28 06:21:01;;;;;;;5.70;5.40;;;17.80;99.90;;;;;;5119957;28;20524;-44
2023/07/28 06:23:32;;;;;;;8.83;8.03;;;17.80;99.90;;;;;;5124169;29;20261;-44
2023/07/28 06:26:03;;;;;;;5.77;5.37;;;17.80;99.90;;;;;;5124715;29;20211;-44
2023/07/28 06:28:33;;;;;;;6.00;5.60;;;17.90;99.90;;;;;;5122575;29;20210;-45
2023/07/28 06:31:04;;;;;;;7.03;6.43;;;18.00;99.90;;;;;;5124205;28;20195;-43
2023/07/28 06:33:35;;;;;;;7.57;6.53;;;18.00;99.90;;;;;;5111987;29;20194;-44
2023/07/28 06:36:05;;;;;;;5.50;5.17;;;17.90;99.90;;;;;;5120097;29;20202;-44
2023/07/28 06:38:36;;;;;;;5.47;5.17;;;17.90;99.90;;;;;;5117356;29;20205;-44
2023/07/28 06:41:07;;;;;;;6.70;6.10;;;17.90;99.90;;;;;;5126094;28;20661;-44
2023/07/28 06:43:38;;;;;;;8.43;7.70;;;18.00;99.90;;;;;;5123722;29;20178;-44
2023/07/28 06:46:08;;;;;;;6.03;5.63;;;17.90;99.90;;;;;;5107911;29;20231;-44
2023/07/28 06:48:39;;;;;;;9.47;8.40;;;18.00;99.90;;;;;;5121552;29;20190;-45
2023/07/28 06:51:10;;;;;;;6.77;6.17;;;18.00;99.90;;;;;;5118380;29;20194;-45
2023/07/28 06:53:40;;;;;;;6.70;6.20;;;18.10;99.90;;;;;;5116527;29;20201;-46
2023/07/28 06:56:11;;;;;;;10.70;8.50;;;18.10;99.90;;;;;;5110920;29;20207;-44
2023/07/28 06:58:42;;;;;;;6.97;6.37;;;18.20;99.90;;;;;;5126251;29;20253;-45
2023/07/28 07:01:12;;;;;;;6.27;5.83;;;18.30;99.90;;;;;;5123827;29;20644;-45
2023/07/28 07:03:43;;;;;;;8.60;7.57;;;18.50;99.90;;;;;;5128674;29;20596;-43
2023/07/28 07:06:14;;;;;;;6.90;6.40;;;19.00;99.90;;;;;;5122460;29;20225;-44
2023/07/28 07:08:44;;;;;;;5.37;5.07;;;19.80;99.90;;;;;;5122901;29;20199;-44
2023/07/28 07:11:15;;;;;;;5.27;4.90;;;20.10;99.90;;;;;;5123302;29;20194;-47
2023/07/28 07:13:46;;;;;;;3.60;3.47;;;20.00;99.90;;;;;;5115352;29;20214;-46
2023/07/28 07:16:17;;;;;;;4.17;3.97;;;19.90;99.90;;;;;;5107290;29;20249;-46
2023/07/28 07:18:48;;;;;;;4.07;3.80;;;19.90;99.90;;;;;;5120553;29;20253;-46
2023/07/28 07:21:19;;;;;;;2.43;2.43;;;19.80;99.90;;;;;;5125505;28;20429;-46
2023/07/28 07:23:49;;;;;;;5.20;4.80;;;19.80;99.90;;;;;;5120324;29;20690;-45
2023/07/28 07:26:20;;;;;;;6.27;4.87;;;19.70;99.90;;;;;;5125811;29;20198;-45
2023/07/28 07:28:51;;;;;;;10.37;5.50;;;19.50;99.90;;;;;;5122892;28;20189;-46
2023/07/28 07:31:22;;;;;;;3.63;3.33;;;19.30;99.90;;;;;;5119408;29;20190;-46
2023/07/28 07:33:52;;;;;;;3.43;3.30;;;19.10;99.90;;;;;;5116758;29;20196;-45
2023/07/28 07:36:23;;;;;;;3.80;3.60;;;19.10;99.90;;;;;;5125910;29;20281;-46
2023/07/28 07:38:54;;;;;;;6.23;5.20;;;19.10;99.90;;;;;;5121944;28;20651;-46
2023/07/28 07:41:25;;;;;;;3.00;2.90;;;19.20;99.90;;;;;;5125096;28;20214;-46
2023/07/28 07:43:56;;;;;;;3.50;3.30;;;19.30;99.90;;;;;;5105173;29;20274;-46
2023/07/28 07:46:27;;;;;;;3.37;3.20;;;19.60;99.90;;;;;;5114740;29;20454;-47
2023/07/28 07:48:58;;;;;;;2.80;2.70;;;19.70;99.90;;;;;;5119901;29;20473;-45
2023/07/28 07:51:29;;;;;;;2.97;2.87;;;19.70;99.90;;;;;;5120059;28;20274;-46
2023/07/28 07:54:01;;;;;;;2.90;2.83;;;19.80;99.90;;;;;;5120248;29;20242;-46
2023/07/28 07:56:32;;;;;;;2.60;2.57;;;20.10;99.90;;;;;;5119203;28;20206;-47
2023/07/28 07:59:03;;;;;;;4.20;3.37;;;20.50;99.90;;;;;;5118503;28;20478;-45
2023/07/28 08:01:33;;;;;;;3.57;3.47;;;21.10;99.90;;;;;;5118386;29;20190;-46
2023/07/28 08:04:07;;;;;;;2.37;2.27;;;21.80;99.90;;;;;;5108193;29;20445;-46
2023/07/28 08:06:38;;;;;;;2.27;2.17;;;22.30;99.90;;;;;;5117334;29;20313;-46
2023/07/28 08:09:09;;;;;;;1.73;1.73;;;22.50;99.90;;;;;;5119466;29;20540;-46
2023/07/28 08:11:40;;;;;;;2.27;2.13;;;23.40;99.90;;;;;;5122527;29;20604;-46
2023/07/28 08:14:11;;;;;;;1.80;1.70;;;23.90;99.90;;;;;;5118861;29;20442;-46
2023/07/28 08:16:42;;;;;;;1.97;1.87;;;23.50;99.90;;;;;;5135942;23;20222;-48
2023/07/28 08:19:12;;;;;;;2.17;2.10;;;22.60;99.90;;;;;;5121249;28;20206;-49
2023/07/28 08:21:43;;;;;;;1.87;1.37;;;22.30;99.90;;;;;;5122218;28;20174;-51
2023/07/28 08:24:14;;;;;;;1.30;1.30;;;22.00;99.90;;;;;;5113784;28;20182;-47
2023/07/28 08:26:44;;;;;;;1.60;1.50;;;21.60;99.90;;;;;;5124683;28;20202;-47
2023/07/28 08:29:15;;;;;;;1.50;1.50;;;21.50;99.90;;;;;;5118701;28;20183;-48
2023/07/28 08:31:46;;;;;;;1.77;1.50;;;21.40;99.90;;;;;;5125294;28;20190;-48
2023/07/28 08:34:17;;;;;;;1.83;1.73;;;21.20;99.90;;;;;;5127551;28;20687;-49
2023/07/28 08:36:48;;;;;;;2.13;1.70;;;20.90;99.90;;;;;;5133260;28;20532;-48
2023/07/28 08:39:19;;;;;;;1.57;1.57;;;20.50;99.90;;;;;;5123779;28;20202;-47
2023/07/28 08:41:59;;;;;;;2.97;1.70;;;20.20;99.90;;;;;;5115215;28;20670;-47
2023/07/28 08:44:32;;;;;;;1.20;1.20;;;20.20;99.90;;;;;;5130280;28;20430;-47
2023/07/28 08:47:04;;;;;;;1.90;1.80;;;20.50;99.90;;;;;;5120085;28;20460;-47
2023/07/28 08:49:36;;;;;;;1.33;1.33;;;20.90;99.90;;;;;;5123769;28;20437;-47
2023/07/28 08:52:07;;;;;;;1.00;1.00;;;21.40;99.90;;;;;;5130611;28;20445;-49
2023/07/28 08:54:37;;;;;;;1.10;1.10;;;22.00;99.90;;;;;;5122647;28;20452;-50
2023/07/28 08:57:09;;;;;;;1.10;1.10;;;22.30;99.90;;;;;;5128162;28;20277;-47
2023/07/28 08:59:42;;;;;;;1.27;1.27;;;22.20;99.90;;;;;;5122772;28;20175;-48
2023/07/28 09:02:18;;;;;;;1.03;1.03;;;21.90;99.90;;;;;;5143556;28;20456;-48
2023/07/28 09:04:49;;;;;;;1.03;1.03;;;21.70;99.90;;;;;;5123080;28;20477;-49
2023/07/28 09:07:20;;;;;;;1.40;1.40;;;21.50;99.90;;;;;;5126254;28;20452;-48
2023/07/28 09:10:00;;;;;;;1.07;1.07;;;21.20;99.90;;;;;;5115000;28;20465;-50
2023/07/28 09:12:33;;;;;;;0.90;0.90;;;21.20;99.90;;;;;;5126539;28;20170;-47
2023/07/28 09:15:06;;;;;;;2.33;1.00;;;21.10;99.90;;;;;;5135696;28;20991;-47
2023/07/28 09:17:42;;;;;;;1.00;1.00;;;21.20;99.90;;;;;;5129170;28;20470;-47
2023/07/28 09:20:14;;;;;;;1.30;1.30;;;21.60;99.90;;;;;;5138835;28;20433;-47
2023/07/28 09:22:46;;;;;;;1.27;1.27;;;21.80;99.90;;;;;;5126197;28;20503;-52
2023/07/28 09:25:17;;;;;;;1.30;1.30;;;22.10;99.90;;;;;;5118965;28;20462;-50
2023/07/28 09:27:51;;;;;;;1.60;1.50;;;22.20;99.90;;;;;;5125212;28;20830;-49
2023/07/28 09:30:24;;;;;;;1.53;1.33;;;22.40;99.90;;;;;;5118611;29;20242;-49
2023/07/28 09:32:55;;;;;;;3.90;1.90;;;21.80;99.90;;;;;;5117203;28;20861;-49
2023/07/28 09:35:26;;;;;;;5.90;1.67;;;21.30;99.90;;;;;;5118978;28;20491;-48
2023/07/28 09:37:57;;;;;;;2.70;2.60;;;20.70;99.90;;;;;;5104884;29;20501;-49
2023/07/28 09:40:28;;;;;;;1.70;1.60;;;20.70;99.90;;;;;;5117688;28;20206;-49
2023/07/28 09:42:59;;;;;;;1.50;1.50;;;21.20;99.90;;;;;;5125184;28;20417;-50
2023/07/28 09:45:30;;;;;;;1.50;1.50;;;21.70;99.90;;;;;;5117140;28;20437;-49
2023/07/28 09:48:07;;;;;;;1.87;1.77;;;21.60;99.90;;;;;;5121075;29;20186;-49
2023/07/28 09:50:40;;;;;;;1.77;1.77;;;21.50;99.90;;;;;;5119336;28;20927;-48
2023/07/28 09:53:11;;;;;;;1.90;1.80;;;21.40;99.90;;;;;;5129249;28;20430;-48
2023/07/28 09:55:43;;;;;;;2.00;1.90;;;21.40;99.90;;;;;;5130493;28;20446;-47
2023/07/28 09:58:17;;;;;;;1.57;1.57;;;21.30;99.90;;;;;;5132162;28;20210;-48
2023/07/28 10:00:49;;;;;;;1.40;1.40;;;21.40;99.90;;;;;;5137974;28;20407;-49
2023/07/28 10:03:19;;;;;;;3.00;2.07;;;21.90;99.90;;;;;;5128164;28;20513;-49
2023/07/28 10:05:50;;;;;;;1.43;1.33;;;22.40;99.90;;;;;;5134389;28;20969;-48
2023/07/28 10:08:22;;;;;;;1.53;1.20;;;22.50;99.90;;;;;;5121631;29;20186;-48
2023/07/28 10:10:52;;;;;;;1.37;1.27;;;22.40;99.90;;;;;;5125160;28;20182;-49
2023/07/28 10:13:23;;;;;;;1.33;1.33;;;22.20;99.90;;;;;;5121477;28;20973;-49
2023/07/28 10:15:54;;;;;;;1.30;1.30;;;22.30;99.90;;;;;;5139976;28;20219;-49
2023/07/28 10:18:26;;;;;;;1.20;1.20;;;22.70;99.90;;;;;;5121057;28;20217;-49
2023/07/28 10:21:12;;;;;;;1.57;1.57;;;23.00;99.90;;;;;;5128974;28;20194;-49
2023/07/28 10:23:44;;;;;;;1.50;1.40;;;23.60;99.90;;;;;;5129677;28;20441;-50
2023/07/28 10:26:31;;;;;;;1.30;1.30;;;24.10;99.90;;;;;;5131585;28;20458;-51
2023/07/28 10:29:36;;;;;;;1.47;1.47;;;24.10;99.90;;;;;;5129381;28;20457;-49
2023/07/28 10:32:07;;;;;;;4.67;1.67;;;23.80;99.90;;;;;;5123794;28;20445;-51
2023/07/28 10:34:38;;;;;;;1.40;1.40;;;23.50;99.90;;;;;;5130904;28;20446;-49
2023/07/28 10:37:09;;;;;;;1.47;1.37;;;23.20;99.90;;;;;;5124065;28;20192;-49
2023/07/28 10:39:41;;;;;;;1.50;1.50;;;23.10;99.90;;;;;;5122520;28;20895;-50
2023/07/28 10:42:12;;;;;;;1.20;1.20;;;22.70;99.90;;;;;;5120926;28;20245;-49
2023/07/28 10:44:42;;;;;;;1.47;1.47;;;22.40;99.90;;;;;;5125607;28;20443;-49
2023/07/28 10:47:14;;;;;;;6.97;1.37;;;22.40;99.90;;;;;;5124005;28;20186;-48
2023/07/28 10:49:47;;;;;;;1.40;1.40;;;23.10;99.90;;;;;;5124857;28;20258;-49
2023/07/28 10:52:17;;;;;;;1.27;1.27;;;23.60;99.90;;;;;;5124555;29;20415;-50
2023/07/28 10:54:48;;;;;;;1.20;1.20;;;23.70;99.90;;;;;;5121432;28;20807;-48
2023/07/28 10:57:19;;;;;;;1.23;1.23;;;23.50;99.90;;;;;;5109476;29;20183;-49
2023/07/28 10:59:50;;;;;;;1.33;1.33;;;23.20;99.90;;;;;;5125440;28;20237;-50
2023/07/28 11:02:21;;;;;;;1.67;1.53;;;22.90;99.90;;;;;;5119311;28;20186;-48
2023/07/28 11:04:52;;;;;;;2.17;1.30;;;22.50;99.90;;;;;;5121217;28;20454;-48
2023/07/28 11:07:23;;;;;;;1.37;1.37;;;21.80;99.90;;;;;;5122016;28;20506;-50
2023/07/28 11:09:54;;;;;;;1.40;1.30;;;21.00;99.90;;;;;;5122791;28;20197;-48
2023/07/28 11:12:25;;;;;;;1.47;1.47;;;20.70;99.90;;;;;;5132309;28;20441;-47
2023/07/28 11:14:56;;;;;;;2.33;1.47;;;20.60;99.90;;;;;;5115963;28;20293;-48
2023/07/28 11:17:27;;;;;;;1.67;1.67;;;20.70;99.90;;;;;;5127300;29;20214;-49
2023/07/28 11:19:58;;;;;;;1.23;1.13;;;20.80;99.90;;;;;;5113814;28;20189;-49
2023/07/28 11:22:28;;;;;;;1.70;1.33;;;20.90;99.90;;;;;;5121459;28;20569;-48
2023/07/28 11:24:59;;;;;;;3.30;1.60;;;20.70;99.90;;;;;;5128449;28;20202;-48
2023/07/28 11:27:29;;;;;;;1.63;1.53;;;20.50;99.90;;;;;;5120629;28;20186;-48
2023/07/28 11:30:03;;;;;;;1.93;1.93;;;20.20;99.90;;;;;;5124287;28;20190;-49
2023/07/28 11:32:37;;;;;;;2.13;0.97;;;20.00;99.90;;;;;;5126065;28;20183;-48
2023/07/28 11:35:10;;;;;;;2.50;1.47;;;19.90;99.90;;;;;;5125835;28;20466;-49
2023/07/28 11:37:42;;;;;;;1.53;1.47;;;19.90;99.90;;;;;;5112830;28;20552;-49
2023/07/28 11:40:18;;;;;;;1.50;1.50;;;19.90;99.90;;;;;;5119086;28;20481;-49
2023/07/28 11:42:54;;;;;;;2.30;2.30;;;19.80;99.90;;;;;;5124056;28;20463;-49
2023/07/28 11:45:26;;;;;;;1.87;1.67;;;19.80;99.90;;;;;;5124115;28;20448;-49
2023/07/28 11:48:05;;;;;;;1.80;1.43;;;19.80;99.90;;;;;;5122896;28;20438;-50
2023/07/28 11:50:41;;;;;;;2.63;2.50;;;19.90;99.90;;;;;;5128502;28;20442;-48
2023/07/28 11:53:12;;;;;;;4.70;2.03;;;20.00;99.90;;;;;;5110721;28;20446;-49
2023/07/28 11:55:43;;;;;;;1.57;1.53;;;20.10;99.90;;;;;;5122487;28;20472;-49
2023/07/28 11:58:13;;;;;;;1.60;1.60;;;20.60;99.90;;;;;;5119040;28;20206;-49
2023/07/28 12:00:44;;;;;;;1.40;1.40;;;21.10;99.90;;;;;;5129198;28;20284;-49
2023/07/28 12:03:14;;;;;;;1.27;1.27;;;21.30;99.90;;;;;;5134246;28;20305;-49
2023/07/28 12:06:06;;;;;;;1.13;1.13;;;21.30;99.90;;;;;;5122425;28;20202;-49
2023/07/28 12:08:37;;;;;;;3.07;1.77;;;21.10;99.90;;;;;;5124383;28;20252;-48
2023/07/28 12:11:13;;;;;;;6.20;1.70;;;20.90;99.90;;;;;;5131616;28;20469;-49
2023/07/28 12:13:50;;;;;;;2.50;1.70;;;20.50;99.90;;;;;;5127710;28;20524;-49
2023/07/28 12:16:47;;;;;;;1.50;1.40;;;20.40;99.90;;;;;;5124627;28;20477;-51
2023/07/28 12:19:19;;;;;;;1.30;1.23;;;20.30;99.90;;;;;;5127114;28;20849;-48
2023/07/28 12:21:50;;;;;;;1.13;1.03;;;20.30;99.90;;;;;;5126841;28;21158;-47
2023/07/28 12:24:20;;;;;;;1.40;1.40;;;20.20;99.90;;;;;;5141574;28;20553;-48
2023/07/28 12:26:51;;;;;;;1.70;1.60;;;20.20;99.90;;;;;;5122102;28;20667;-50
2023/07/28 12:29:22;;;;;;;1.90;1.90;;;20.20;99.90;;;;;;5119829;28;20190;-48
2023/07/28 12:31:52;;;;;;;1.60;1.60;;;20.20;99.90;;;;;;5134315;28;20524;-47
2023/07/28 12:34:23;;;;;;;1.63;1.53;;;20.00;99.90;;;;;;5115001;28;20190;-49
2023/07/28 12:36:53;;;;;;;1.03;1.03;;;20.00;99.90;;;;;;5116403;28;20213;-48
2023/07/28 12:39:24;;;;;;;2.40;2.30;;;20.10;99.90;;;;;;5128779;28;20281;-48
2023/07/28 12:41:55;;;;;;;1.80;1.80;;;20.10;99.90;;;;;;5125820;28;20620;-49
2023/07/28 12:44:25;;;;;;;2.53;1.10;;;20.30;99.90;;;;;;5132200;28;20179;-47
2023/07/28 12:46:56;;;;;;;1.27;1.17;;;20.50;99.90;;;;;;5128126;28;20202;-47
2023/07/28 12:49:28;;;;;;;5.03;1.60;;;20.60;99.90;;;;;;5124090;28;20182;-47
2023/07/28 12:51:59;;;;;;;1.67;1.27;;;20.70;99.90;;;;;;5115430;28;20190;-51
2023/07/28 12:54:30;;;;;;;1.50;1.50;;;20.70;99.90;;;;;;5143301;28;20497;-46
2023/07/28 12:57:01;;;;;;;1.20;1.10;;;20.90;99.90;;;;;;5118712;29;20677;-49
2023/07/28 12:59:33;;;;;;;1.30;1.30;;;21.00;99.90;;;;;;5125134;28;20293;-49
2023/07/28 13:02:03;;;;;;;1.30;1.30;;;21.30;99.90;;;;;;5114403;28;20522;-48
2023/07/28 13:04:34;;;;;;;1.77;1.70;;;21.70;99.90;;;;;;5114285;28;20577;-49
2023/07/28 13:07:05;;;;;;;1.57;1.47;;;21.90;99.90;;;;;;5113009;28;20183;-46